RHINO91 KFFO-KFFO
Flight info
| Callsign | RHINO91 |
|---|---|
| Flight time | 1h 32m |
| Altitude | 2000 |
| Route | KFFO |
| Aircraft | C17/H-VGDW/C |
Departure
| Time | 2026-05-08 23:50 |
|---|---|
| Airport | Wright-Patterson Air Force Base (KFFO) |
Arrival
| Time | 2026-05-09 01:22 |
|---|---|
| Airport | Wright-Patterson Air Force Base (KFFO) |
| Time | Latitude | Longitude | Altitude | Speed | Heading |
|---|---|---|---|---|---|
| 2026-05-08 23:35 | 39.83555 | -84.04359 | 823 ft | 0 kts | 324° |
| 2026-05-08 23:46 | 39.83598 | -84.04393 | 823 ft | 10 kts | 348° |
| 2026-05-08 23:46 | 39.83660 | -84.04351 | 824 ft | 10 kts | 49° |
| 2026-05-08 23:46 | 39.83707 | -84.04279 | 821 ft | 10 kts | 49° |
| 2026-05-08 23:46 | 39.83756 | -84.04206 | 822 ft | 11 kts | 50° |
| 2026-05-08 23:47 | 39.83807 | -84.04127 | 822 ft | 12 kts | 50° |
| 2026-05-08 23:47 | 39.83860 | -84.04045 | 826 ft | 12 kts | 50° |
| 2026-05-08 23:47 | 39.83913 | -84.03965 | 825 ft | 12 kts | 50° |
| 2026-05-08 23:47 | 39.83969 | -84.03880 | 823 ft | 13 kts | 50° |
| 2026-05-08 23:48 | 39.83987 | -84.03786 | 823 ft | 10 kts | 115° |
| 2026-05-08 23:48 | 39.83936 | -84.03711 | 825 ft | 12 kts | 129° |
| 2026-05-08 23:48 | 39.83935 | -84.03608 | 821 ft | 11 kts | 90° |
| 2026-05-08 23:48 | 39.83901 | -84.03528 | 825 ft | 9 kts | 106° |
| 2026-05-08 23:49 | 39.83917 | -84.03448 | 825 ft | 15 kts | 74° |
| 2026-05-08 23:49 | 39.83885 | -84.03305 | 823 ft | 18 kts | 136° |
| 2026-05-08 23:49 | 39.83795 | -84.03203 | 823 ft | 16 kts | 140° |
| 2026-05-08 23:49 | 39.83709 | -84.03223 | 824 ft | 13 kts | 230° |
| 2026-05-08 23:50 | 39.83561 | -84.03442 | 822 ft | 73 kts | 229° |
| 2026-05-08 23:50 | 39.82997 | -84.04278 | 899 ft | 163 kts | 229° |
| 2026-05-08 23:50 | 39.82216 | -84.05481 | 1513 ft | 175 kts | 230° |
| 2026-05-08 23:50 | 39.81422 | -84.06704 | 1855 ft | 183 kts | 231° |
| 2026-05-08 23:51 | 39.80382 | -84.07633 | 1815 ft | 187 kts | 202° |
| 2026-05-08 23:51 | 39.79077 | -84.07532 | 1708 ft | 197 kts | 162° |
| 2026-05-08 23:51 | 39.78053 | -84.06329 | 1598 ft | 204 kts | 127° |
| 2026-05-08 23:51 | 39.77600 | -84.04587 | 1506 ft | 205 kts | 98° |
| 2026-05-08 23:52 | 39.77892 | -84.02845 | 1523 ft | 199 kts | 60° |
| 2026-05-08 23:52 | 39.78827 | -84.01588 | 1631 ft | 190 kts | 41° |
| 2026-05-08 23:52 | 39.79705 | -84.00439 | 1720 ft | 169 kts | 46° |
| 2026-05-08 23:52 | 39.80406 | -83.99289 | 1874 ft | 163 kts | 50° |
| 2026-05-08 23:53 | 39.81107 | -83.98137 | 2050 ft | 169 kts | 49° |
| 2026-05-08 23:53 | 39.81907 | -83.97025 | 2184 ft | 168 kts | 33° |
| 2026-05-08 23:53 | 39.83024 | -83.96737 | 2036 ft | 166 kts | 344° |
| 2026-05-08 23:53 | 39.83935 | -83.97541 | 1799 ft | 157 kts | 312° |
| 2026-05-08 23:54 | 39.84570 | -83.98680 | 1506 ft | 158 kts | 290° |
| 2026-05-08 23:54 | 39.84786 | -84.00065 | 1269 ft | 151 kts | 276° |
| 2026-05-08 23:54 | 39.84702 | -84.01310 | 1166 ft | 133 kts | 249° |
| 2026-05-08 23:55 | 39.83768 | -84.03134 | 839 ft | 112 kts | 230° |
| 2026-05-08 23:55 | 39.83200 | -84.03975 | 829 ft | 152 kts | 230° |
| 2026-05-08 23:55 | 39.82464 | -84.05124 | 1323 ft | 168 kts | 231° |
| 2026-05-08 23:55 | 39.81737 | -84.06271 | 1873 ft | 160 kts | 232° |
| 2026-05-08 23:56 | 39.80952 | -84.07352 | 2051 ft | 173 kts | 219° |
| 2026-05-08 23:56 | 39.79733 | -84.07696 | 1994 ft | 194 kts | 176° |
| 2026-05-08 23:56 | 39.78547 | -84.06802 | 1867 ft | 214 kts | 134° |
| 2026-05-08 23:56 | 39.78021 | -84.05011 | 1830 ft | 216 kts | 95° |
| 2026-05-08 23:57 | 39.78371 | -84.03142 | 1730 ft | 214 kts | 58° |
| 2026-05-08 23:57 | 39.79302 | -84.01666 | 1715 ft | 210 kts | 47° |
| 2026-05-08 23:57 | 39.80229 | -84.00233 | 1745 ft | 198 kts | 49° |
| 2026-05-08 23:57 | 39.81062 | -83.98894 | 1777 ft | 185 kts | 49° |
| 2026-05-08 23:58 | 39.81854 | -83.97610 | 1813 ft | 182 kts | 49° |
| 2026-05-08 23:58 | 39.82840 | -83.96611 | 1729 ft | 181 kts | 18° |
| 2026-05-08 23:58 | 39.84047 | -83.96644 | 1628 ft | 172 kts | 336° |
| 2026-05-08 23:58 | 39.84848 | -83.97697 | 1462 ft | 168 kts | 291° |
| 2026-05-08 23:59 | 39.84946 | -83.99215 | 1350 ft | 166 kts | 268° |
| 2026-05-08 23:59 | 39.84852 | -84.00650 | 1352 ft | 153 kts | 262° |
| 2026-05-08 23:59 | 39.84533 | -84.01912 | 1059 ft | 146 kts | 242° |
| 2026-05-08 23:59 | 39.83924 | -84.02892 | 885 ft | 129 kts | 229° |
| 2026-05-09 00:00 | 39.83331 | -84.03774 | 824 ft | 151 kts | 229° |
| 2026-05-09 00:00 | 39.82558 | -84.04969 | 1104 ft | 183 kts | 230° |
| 2026-05-09 00:00 | 39.81678 | -84.06261 | 1292 ft | 197 kts | 228° |
| 2026-05-09 00:00 | 39.80677 | -84.07495 | 1606 ft | 199 kts | 213° |
| 2026-05-09 00:01 | 39.79344 | -84.07760 | 1942 ft | 207 kts | 173° |
| 2026-05-09 00:01 | 39.78059 | -84.06761 | 1920 ft | 226 kts | 136° |
| 2026-05-09 00:01 | 39.77406 | -84.04945 | 2025 ft | 224 kts | 99° |
| 2026-05-09 00:01 | 39.77729 | -84.02996 | 1991 ft | 226 kts | 60° |
| 2026-05-09 00:02 | 39.78759 | -84.01434 | 1874 ft | 227 kts | 45° |
| 2026-05-09 00:02 | 39.79791 | -83.99963 | 1927 ft | 207 kts | 46° |
| 2026-05-09 00:02 | 39.80683 | -83.98618 | 1928 ft | 191 kts | 47° |
| 2026-05-09 00:02 | 39.81543 | -83.97343 | 1960 ft | 185 kts | 46° |
| 2026-05-09 00:03 | 39.82559 | -83.96386 | 1929 ft | 178 kts | 19° |
| 2026-05-09 00:03 | 39.83747 | -83.96225 | 1822 ft | 171 kts | 347° |
| 2026-05-09 00:03 | 39.84793 | -83.96869 | 1651 ft | 169 kts | 318° |
| 2026-05-09 00:03 | 39.85460 | -83.98094 | 1522 ft | 166 kts | 287° |
| 2026-05-09 00:04 | 39.85552 | -83.99584 | 1371 ft | 168 kts | 263° |
| 2026-05-09 00:04 | 39.85131 | -84.01008 | 1166 ft | 171 kts | 239° |
| 2026-05-09 00:04 | 39.84455 | -84.02102 | 1056 ft | 138 kts | 229° |
| 2026-05-09 00:04 | 39.83880 | -84.02964 | 901 ft | 118 kts | 229° |
| 2026-05-09 00:05 | 39.83333 | -84.03773 | 823 ft | 136 kts | 229° |
| 2026-05-09 00:05 | 39.82561 | -84.04928 | 1105 ft | 198 kts | 229° |
| 2026-05-09 00:05 | 39.81680 | -84.06247 | 1597 ft | 188 kts | 230° |
| 2026-05-09 00:05 | 39.80823 | -84.07446 | 2066 ft | 171 kts | 221° |
| 2026-05-09 00:06 | 39.79680 | -84.07879 | 2077 ft | 191 kts | 180° |
| 2026-05-09 00:06 | 39.78401 | -84.07156 | 1945 ft | 218 kts | 142° |
| 2026-05-09 00:06 | 39.77652 | -84.05405 | 1954 ft | 230 kts | 104° |
| 2026-05-09 00:06 | 39.77824 | -84.03318 | 1846 ft | 238 kts | 66° |
| 2026-05-09 00:07 | 39.78824 | -84.01658 | 1869 ft | 234 kts | 45° |
| 2026-05-09 00:07 | 39.79905 | -84.00127 | 1870 ft | 216 kts | 46° |
| 2026-05-09 00:07 | 39.80839 | -83.98753 | 1916 ft | 193 kts | 47° |
| 2026-05-09 00:07 | 39.81706 | -83.97471 | 1937 ft | 187 kts | 46° |
| 2026-05-09 00:08 | 39.82704 | -83.96462 | 1894 ft | 187 kts | 19° |
| 2026-05-09 00:08 | 39.83974 | -83.96242 | 1777 ft | 182 kts | 353° |
| 2026-05-09 00:08 | 39.85146 | -83.96737 | 1600 ft | 177 kts | 325° |
| 2026-05-09 00:08 | 39.85942 | -83.97914 | 1416 ft | 172 kts | 295° |
| 2026-05-09 00:09 | 39.86085 | -83.99370 | 1377 ft | 157 kts | 260° |
| 2026-05-09 00:09 | 39.85535 | -84.00524 | 1292 ft | 150 kts | 224° |
| 2026-05-09 00:09 | 39.84849 | -84.01484 | 1185 ft | 134 kts | 231° |
| 2026-05-09 00:09 | 39.84303 | -84.02334 | 1060 ft | 114 kts | 228° |
| 2026-05-09 00:10 | 39.83799 | -84.03086 | 876 ft | 110 kts | 229° |
| 2026-05-09 00:10 | 39.83238 | -84.03911 | 820 ft | 152 kts | 229° |
| 2026-05-09 00:10 | 39.82447 | -84.05101 | 1154 ft | 186 kts | 230° |
| 2026-05-09 00:10 | 39.81559 | -84.06426 | 1475 ft | 201 kts | 228° |
| 2026-05-09 00:11 | 39.80386 | -84.07203 | 2199 ft | 194 kts | 191° |
| 2026-05-09 00:11 | 39.79022 | -84.06755 | 2094 ft | 217 kts | 152° |
| 2026-05-09 00:11 | 39.78041 | -84.05209 | 1963 ft | 230 kts | 114° |
| 2026-05-09 00:11 | 39.77898 | -84.03157 | 1967 ft | 230 kts | 79° |
| 2026-05-09 00:12 | 39.78622 | -84.01365 | 2007 ft | 225 kts | 46° |
| 2026-05-09 00:12 | 39.79691 | -83.99914 | 2010 ft | 222 kts | 44° |
| 2026-05-09 00:12 | 39.80656 | -83.98575 | 2045 ft | 184 kts | 45° |
| 2026-05-09 00:12 | 39.81472 | -83.97442 | 1984 ft | 165 kts | 44° |
| 2026-05-09 00:13 | 39.82252 | -83.96385 | 1891 ft | 159 kts | 38° |
| 2026-05-09 00:13 | 39.83250 | -83.95954 | 1767 ft | 152 kts | 354° |
| 2026-05-09 00:13 | 39.84166 | -83.96565 | 1518 ft | 150 kts | 313° |
| 2026-05-09 00:13 | 39.84815 | -83.97609 | 1366 ft | 149 kts | 296° |
| 2026-05-09 00:14 | 39.85029 | -83.98925 | 1215 ft | 149 kts | 268° |
| 2026-05-09 00:14 | 39.84862 | -84.00240 | 1182 ft | 150 kts | 261° |
| 2026-05-09 00:14 | 39.84645 | -84.01560 | 1123 ft | 150 kts | 250° |
| 2026-05-09 00:14 | 39.84124 | -84.02586 | 994 ft | 125 kts | 228° |
| 2026-05-09 00:15 | 39.83597 | -84.03390 | 822 ft | 113 kts | 229° |
| 2026-05-09 00:15 | 39.82960 | -84.04335 | 875 ft | 172 kts | 229° |
| 2026-05-09 00:15 | 39.82155 | -84.05559 | 1272 ft | 183 kts | 229° |
| 2026-05-09 00:15 | 39.81289 | -84.06837 | 1674 ft | 193 kts | 226° |
| 2026-05-09 00:16 | 39.80057 | -84.07510 | 1779 ft | 196 kts | 185° |
| 2026-05-09 00:16 | 39.78825 | -84.06906 | 1984 ft | 197 kts | 142° |
| 2026-05-09 00:16 | 39.78299 | -84.05914 | 1851 ft | 210 kts | 114° |
| 2026-05-09 00:16 | 39.78313 | -84.04054 | 1887 ft | 206 kts | 68° |
| 2026-05-09 00:17 | 39.79231 | -84.02692 | 1993 ft | 205 kts | 28° |
| 2026-05-09 00:17 | 39.80683 | -84.00967 | 1842 ft | 224 kts | 49° |
| 2026-05-09 00:17 | 39.81610 | -83.99504 | 1769 ft | 193 kts | 48° |
| 2026-05-09 00:17 | 39.82420 | -83.98266 | 1894 ft | 165 kts | 47° |
| 2026-05-09 00:18 | 39.82924 | -83.97569 | 1952 ft | 157 kts | 36° |
| 2026-05-09 00:18 | 39.83939 | -83.97231 | 1739 ft | 155 kts | 347° |
| 2026-05-09 00:18 | 39.84827 | -83.97975 | 1466 ft | 155 kts | 307° |
| 2026-05-09 00:18 | 39.85257 | -83.99219 | 1375 ft | 149 kts | 279° |
| 2026-05-09 00:19 | 39.85259 | -84.00516 | 1268 ft | 131 kts | 256° |
| 2026-05-09 00:19 | 39.84870 | -84.01454 | 1115 ft | 111 kts | 233° |
| 2026-05-09 00:19 | 39.84186 | -84.02500 | 983 ft | 113 kts | 229° |
| 2026-05-09 00:19 | 39.83706 | -84.03227 | 832 ft | 104 kts | 229° |
| 2026-05-09 00:20 | 39.83355 | -84.03748 | 823 ft | 131 kts | 229° |
| 2026-05-09 00:20 | 39.82697 | -84.04751 | 1151 ft | 150 kts | 230° |
| 2026-05-09 00:20 | 39.81981 | -84.05811 | 1408 ft | 172 kts | 229° |
| 2026-05-09 00:20 | 39.81115 | -84.07048 | 1728 ft | 196 kts | 228° |
| 2026-05-09 00:21 | 39.79926 | -84.07946 | 1885 ft | 200 kts | 198° |
| 2026-05-09 00:21 | 39.78536 | -84.07827 | 1845 ft | 209 kts | 162° |
| 2026-05-09 00:21 | 39.77430 | -84.06633 | 1874 ft | 211 kts | 126° |
| 2026-05-09 00:21 | 39.76980 | -84.04841 | 1941 ft | 210 kts | 95° |
| 2026-05-09 00:22 | 39.77288 | -84.03007 | 1932 ft | 211 kts | 59° |
| 2026-05-09 00:22 | 39.78220 | -84.01550 | 1932 ft | 210 kts | 45° |
| 2026-05-09 00:22 | 39.79163 | -84.00210 | 1993 ft | 189 kts | 46° |
| 2026-05-09 00:22 | 39.79977 | -83.98990 | 2014 ft | 175 kts | 48° |
| 2026-05-09 00:23 | 39.80782 | -83.97815 | 1999 ft | 169 kts | 44° |
| 2026-05-09 00:23 | 39.81637 | -83.96834 | 1956 ft | 164 kts | 24° |
| 2026-05-09 00:23 | 39.82716 | -83.96838 | 1763 ft | 157 kts | 333° |
| 2026-05-09 00:23 | 39.83531 | -83.97740 | 1397 ft | 154 kts | 311° |
| 2026-05-09 00:24 | 39.84179 | -83.98739 | 1266 ft | 129 kts | 294° |
| 2026-05-09 00:24 | 39.84313 | -83.99790 | 1105 ft | 113 kts | 271° |
| 2026-05-09 00:24 | 39.84296 | -84.00859 | 1146 ft | 125 kts | 267° |
| 2026-05-09 00:24 | 39.84178 | -84.01948 | 1156 ft | 113 kts | 253° |
| 2026-05-09 00:25 | 39.83907 | -84.02853 | 959 ft | 102 kts | 241° |
| 2026-05-09 00:25 | 39.83472 | -84.03540 | 822 ft | 109 kts | 231° |
| 2026-05-09 00:25 | 39.82845 | -84.04507 | 1023 ft | 159 kts | 229° |
| 2026-05-09 00:25 | 39.82081 | -84.05637 | 1142 ft | 172 kts | 229° |
| 2026-05-09 00:26 | 39.81310 | -84.06821 | 1328 ft | 173 kts | 230° |
| 2026-05-09 00:26 | 39.80308 | -84.07436 | 1884 ft | 160 kts | 184° |
| 2026-05-09 00:26 | 39.79212 | -84.06863 | 1889 ft | 188 kts | 144° |
| 2026-05-09 00:26 | 39.78525 | -84.05392 | 1799 ft | 194 kts | 105° |
| 2026-05-09 00:27 | 39.78621 | -84.03687 | 1745 ft | 189 kts | 69° |
| 2026-05-09 00:27 | 39.79345 | -84.02303 | 1740 ft | 184 kts | 47° |
| 2026-05-09 00:27 | 39.80201 | -84.01054 | 1777 ft | 186 kts | 46° |
| 2026-05-09 00:27 | 39.81063 | -83.99780 | 1849 ft | 193 kts | 47° |
| 2026-05-09 00:28 | 39.81956 | -83.98418 | 1962 ft | 192 kts | 45° |
| 2026-05-09 00:28 | 39.83061 | -83.97643 | 1902 ft | 176 kts | 7° |
| 2026-05-09 00:28 | 39.84175 | -83.98003 | 1731 ft | 164 kts | 324° |
| 2026-05-09 00:28 | 39.84930 | -83.99143 | 1622 ft | 170 kts | 293° |
| 2026-05-09 00:29 | 39.85064 | -84.00659 | 1639 ft | 180 kts | 264° |
| 2026-05-09 00:29 | 39.84483 | -84.02194 | 1587 ft | 203 kts | 232° |
| 2026-05-09 00:29 | 39.83527 | -84.03524 | 1461 ft | 197 kts | 229° |
| 2026-05-09 00:29 | 39.82650 | -84.04861 | 1423 ft | 193 kts | 230° |
| 2026-05-09 00:30 | 39.81774 | -84.06197 | 1375 ft | 195 kts | 229° |
| 2026-05-09 00:30 | 39.80746 | -84.07248 | 1561 ft | 186 kts | 200° |
| 2026-05-09 00:30 | 39.79578 | -84.06978 | 2008 ft | 167 kts | 147° |
| 2026-05-09 00:30 | 39.78975 | -84.05690 | 2139 ft | 187 kts | 106° |
| 2026-05-09 00:31 | 39.79081 | -84.03897 | 2096 ft | 210 kts | 71° |
| 2026-05-09 00:31 | 39.79919 | -84.02345 | 2140 ft | 212 kts | 45° |
| 2026-05-09 00:31 | 39.80855 | -84.01041 | 2194 ft | 183 kts | 45° |
| 2026-05-09 00:31 | 39.81640 | -83.99884 | 2159 ft | 161 kts | 47° |
| 2026-05-09 00:32 | 39.82322 | -83.98804 | 2110 ft | 151 kts | 48° |
| 2026-05-09 00:32 | 39.82996 | -83.97771 | 2057 ft | 146 kts | 40° |
| 2026-05-09 00:32 | 39.83920 | -83.97442 | 1922 ft | 138 kts | 347° |
| 2026-05-09 00:32 | 39.84763 | -83.97971 | 1782 ft | 135 kts | 322° |
| 2026-05-09 00:33 | 39.85462 | -83.98774 | 1672 ft | 135 kts | 307° |
| 2026-05-09 00:33 | 39.85884 | -83.99856 | 1646 ft | 136 kts | 282° |
| 2026-05-09 00:33 | 39.85499 | -84.00838 | 1611 ft | 134 kts | 214° |
| 2026-05-09 00:33 | 39.84806 | -84.01593 | 1206 ft | 126 kts | 230° |
| 2026-05-09 00:34 | 39.84271 | -84.02387 | 1059 ft | 109 kts | 229° |
| 2026-05-09 00:34 | 39.83766 | -84.03133 | 898 ft | 113 kts | 229° |
| 2026-05-09 00:34 | 39.83190 | -84.03992 | 822 ft | 149 kts | 228° |
| 2026-05-09 00:34 | 39.82354 | -84.05221 | 1046 ft | 212 kts | 229° |
| 2026-05-09 00:35 | 39.81254 | -84.06815 | 1465 ft | 245 kts | 224° |
| 2026-05-09 00:35 | 39.79801 | -84.07582 | 2059 ft | 215 kts | 188° |
| 2026-05-09 00:35 | 39.78394 | -84.07105 | 2058 ft | 211 kts | 152° |
| 2026-05-09 00:35 | 39.77469 | -84.05640 | 2002 ft | 215 kts | 114° |
| 2026-05-09 00:36 | 39.77392 | -84.03733 | 1950 ft | 214 kts | 76° |
| 2026-05-09 00:36 | 39.78190 | -84.02156 | 1869 ft | 209 kts | 43° |
| 2026-05-09 00:36 | 39.79198 | -84.00812 | 1888 ft | 205 kts | 46° |
| 2026-05-09 00:36 | 39.80024 | -83.99448 | 1934 ft | 179 kts | 50° |
| 2026-05-09 00:37 | 39.80795 | -83.98314 | 1943 ft | 163 kts | 41° |
| 2026-05-09 00:37 | 39.81633 | -83.97367 | 1937 ft | 157 kts | 34° |
| 2026-05-09 00:37 | 39.82605 | -83.96937 | 1862 ft | 147 kts | 351° |
| 2026-05-09 00:37 | 39.83574 | -83.97380 | 1795 ft | 151 kts | 333° |
| 2026-05-09 00:38 | 39.84512 | -83.97926 | 1880 ft | 141 kts | 330° |
| 2026-05-09 00:38 | 39.85162 | -83.98740 | 1994 ft | 126 kts | 298° |
| 2026-05-09 00:38 | 39.85389 | -83.99764 | 1984 ft | 114 kts | 271° |
| 2026-05-09 00:38 | 39.85217 | -84.00790 | 1693 ft | 122 kts | 249° |
| 2026-05-09 00:39 | 39.84726 | -84.01688 | 1328 ft | 121 kts | 230° |
| 2026-05-09 00:39 | 39.84202 | -84.02473 | 1094 ft | 112 kts | 230° |
| 2026-05-09 00:39 | 39.83715 | -84.03214 | 870 ft | 106 kts | 230° |
| 2026-05-09 00:39 | 39.83159 | -84.04037 | 820 ft | 137 kts | 228° |
| 2026-05-09 00:40 | 39.82427 | -84.05126 | 1096 ft | 168 kts | 229° |
| 2026-05-09 00:40 | 39.81617 | -84.06347 | 1370 ft | 190 kts | 229° |
| 2026-05-09 00:40 | 39.80508 | -84.07221 | 1934 ft | 193 kts | 194° |
| 2026-05-09 00:41 | 39.78101 | -84.05610 | 1951 ft | 217 kts | 123° |
| 2026-05-09 00:41 | 39.77712 | -84.03762 | 1993 ft | 213 kts | 92° |
| 2026-05-09 00:41 | 39.78062 | -84.01963 | 2085 ft | 207 kts | 60° |
| 2026-05-09 00:41 | 39.78981 | -84.00496 | 1997 ft | 212 kts | 46° |
| 2026-05-09 00:42 | 39.79942 | -83.99034 | 1966 ft | 213 kts | 49° |
| 2026-05-09 00:42 | 39.80854 | -83.97585 | 1990 ft | 194 kts | 49° |
| 2026-05-09 00:42 | 39.81735 | -83.96504 | 2063 ft | 152 kts | 25° |
| 2026-05-09 00:42 | 39.82705 | -83.96351 | 1933 ft | 138 kts | 344° |
| 2026-05-09 00:43 | 39.83587 | -83.96791 | 1770 ft | 135 kts | 331° |
| 2026-05-09 00:43 | 39.84311 | -83.97507 | 1627 ft | 128 kts | 308° |
| 2026-05-09 00:43 | 39.84789 | -83.98447 | 1464 ft | 124 kts | 294° |
| 2026-05-09 00:43 | 39.85000 | -83.99480 | 1348 ft | 115 kts | 281° |
| 2026-05-09 00:44 | 39.85020 | -84.00508 | 1291 ft | 114 kts | 264° |
| 2026-05-09 00:44 | 39.84810 | -84.01441 | 1154 ft | 103 kts | 243° |
| 2026-05-09 00:44 | 39.84360 | -84.02247 | 1025 ft | 117 kts | 229° |
| 2026-05-09 00:44 | 39.83835 | -84.03030 | 903 ft | 109 kts | 230° |
| 2026-05-09 00:45 | 39.83320 | -84.03795 | 825 ft | 134 kts | 229° |
| 2026-05-09 00:45 | 39.82564 | -84.04936 | 1167 ft | 192 kts | 230° |
| 2026-05-09 00:45 | 39.81710 | -84.06203 | 1722 ft | 182 kts | 229° |
| 2026-05-09 00:45 | 39.80875 | -84.07383 | 2058 ft | 180 kts | 227° |
| 2026-05-09 00:46 | 39.79671 | -84.08026 | 2044 ft | 195 kts | 187° |
| 2026-05-09 00:46 | 39.78380 | -84.07510 | 2057 ft | 206 kts | 150° |
| 2026-05-09 00:46 | 39.77474 | -84.06039 | 2008 ft | 216 kts | 115° |
| 2026-05-09 00:46 | 39.77318 | -84.04089 | 1906 ft | 221 kts | 82° |
| 2026-05-09 00:47 | 39.77943 | -84.02338 | 1889 ft | 213 kts | 48° |
| 2026-05-09 00:47 | 39.78898 | -84.00887 | 1891 ft | 210 kts | 50° |
| 2026-05-09 00:47 | 39.79771 | -83.99420 | 1962 ft | 194 kts | 50° |
| 2026-05-09 00:47 | 39.80548 | -83.98110 | 2049 ft | 172 kts | 49° |
| 2026-05-09 00:48 | 39.81353 | -83.97076 | 2103 ft | 152 kts | 29° |
| 2026-05-09 00:48 | 39.82298 | -83.96876 | 2118 ft | 135 kts | 343° |
| 2026-05-09 00:48 | 39.83134 | -83.97387 | 2049 ft | 137 kts | 327° |
| 2026-05-09 00:48 | 39.83975 | -83.98026 | 1891 ft | 143 kts | 325° |
| 2026-05-09 00:49 | 39.84671 | -83.98888 | 1711 ft | 132 kts | 302° |
| 2026-05-09 00:49 | 39.84968 | -83.99971 | 1547 ft | 125 kts | 280° |
| 2026-05-09 00:49 | 39.84938 | -84.01058 | 1348 ft | 117 kts | 256° |
| 2026-05-09 00:49 | 39.84557 | -84.01945 | 1108 ft | 111 kts | 232° |
| 2026-05-09 00:50 | 39.84042 | -84.02720 | 951 ft | 118 kts | 229° |
| 2026-05-09 00:50 | 39.83497 | -84.03536 | 821 ft | 122 kts | 228° |
| 2026-05-09 00:50 | 39.82821 | -84.04549 | 1024 ft | 165 kts | 230° |
| 2026-05-09 00:50 | 39.82071 | -84.05667 | 1348 ft | 166 kts | 229° |
| 2026-05-09 00:51 | 39.81291 | -84.06780 | 1646 ft | 170 kts | 228° |
| 2026-05-09 00:51 | 39.80204 | -84.07445 | 1788 ft | 187 kts | 187° |
| 2026-05-09 00:51 | 39.78953 | -84.06906 | 1787 ft | 200 kts | 144° |
| 2026-05-09 00:51 | 39.78213 | -84.05346 | 1741 ft | 207 kts | 104° |
| 2026-05-09 00:52 | 39.78281 | -84.03498 | 1729 ft | 209 kts | 71° |
| 2026-05-09 00:52 | 39.79051 | -84.01962 | 1923 ft | 200 kts | 49° |
| 2026-05-09 00:52 | 39.79888 | -84.00549 | 2115 ft | 194 kts | 51° |
| 2026-05-09 00:52 | 39.80734 | -83.99276 | 2263 ft | 176 kts | 43° |
| 2026-05-09 00:53 | 39.81572 | -83.98187 | 2324 ft | 166 kts | 44° |
| 2026-05-09 00:53 | 39.82477 | -83.97352 | 2258 ft | 159 kts | 10° |
| 2026-05-09 00:53 | 39.83486 | -83.97657 | 1934 ft | 152 kts | 319° |
| 2026-05-09 00:53 | 39.83924 | -83.98891 | 1377 ft | 160 kts | 277° |
| 2026-05-09 00:54 | 39.84115 | -84.00229 | 1349 ft | 140 kts | 281° |
| 2026-05-09 00:54 | 39.84280 | -84.01387 | 1263 ft | 123 kts | 276° |
| 2026-05-09 00:54 | 39.84137 | -84.02424 | 1002 ft | 114 kts | 247° |
| 2026-05-09 00:54 | 39.83685 | -84.03251 | 843 ft | 113 kts | 229° |
| 2026-05-09 00:55 | 39.83114 | -84.04100 | 824 ft | 155 kts | 229° |
| 2026-05-09 00:55 | 39.82314 | -84.05290 | 1276 ft | 184 kts | 229° |
| 2026-05-09 00:55 | 39.81453 | -84.06546 | 1848 ft | 186 kts | 230° |
| 2026-05-09 00:55 | 39.80624 | -84.07758 | 2168 ft | 178 kts | 231° |
| 2026-05-09 00:56 | 39.79669 | -84.08762 | 2154 ft | 182 kts | 206° |
| 2026-05-09 00:56 | 39.78380 | -84.08786 | 2059 ft | 194 kts | 166° |
| 2026-05-09 00:56 | 39.77333 | -84.07739 | 2070 ft | 199 kts | 126° |
| 2026-05-09 00:56 | 39.77029 | -84.06022 | 2131 ft | 197 kts | 84° |
| 2026-05-09 00:57 | 39.77574 | -84.04423 | 2101 ft | 195 kts | 49° |
| 2026-05-09 00:57 | 39.78484 | -84.03118 | 2088 ft | 196 kts | 46° |
| 2026-05-09 00:57 | 39.79349 | -84.01738 | 2067 ft | 198 kts | 50° |
| 2026-05-09 00:57 | 39.80181 | -84.00332 | 2150 ft | 193 kts | 49° |
| 2026-05-09 00:58 | 39.81062 | -83.99041 | 2234 ft | 191 kts | 44° |
| 2026-05-09 00:58 | 39.82014 | -83.97826 | 2152 ft | 188 kts | 42° |
| 2026-05-09 00:58 | 39.83017 | -83.97069 | 2172 ft | 153 kts | 6° |
| 2026-05-09 00:58 | 39.83944 | -83.97396 | 1971 ft | 136 kts | 321° |
| 2026-05-09 00:59 | 39.84644 | -83.98173 | 1766 ft | 130 kts | 317° |
| 2026-05-09 00:59 | 39.85193 | -83.99046 | 1652 ft | 126 kts | 290° |
| 2026-05-09 00:59 | 39.85277 | -84.00184 | 1477 ft | 124 kts | 266° |
| 2026-05-09 00:59 | 39.84974 | -84.01254 | 1285 ft | 130 kts | 240° |
| 2026-05-09 01:00 | 39.84424 | -84.02158 | 1058 ft | 129 kts | 228° |
| 2026-05-09 01:00 | 39.83831 | -84.03040 | 905 ft | 123 kts | 229° |
| 2026-05-09 01:00 | 39.83241 | -84.03916 | 821 ft | 154 kts | 229° |
| 2026-05-09 01:00 | 39.82411 | -84.05174 | 1045 ft | 207 kts | 230° |
| 2026-05-09 01:01 | 39.81492 | -84.06554 | 1324 ft | 197 kts | 229° |
| 2026-05-09 01:01 | 39.80425 | -84.07334 | 1873 ft | 167 kts | 190° |
| 2026-05-09 01:01 | 39.79395 | -84.06858 | 2020 ft | 165 kts | 139° |
| 2026-05-09 01:01 | 39.78983 | -84.05444 | 1821 ft | 178 kts | 88° |
| 2026-05-09 01:02 | 39.79431 | -84.03934 | 1808 ft | 186 kts | 53° |
| 2026-05-09 01:02 | 39.80308 | -84.02660 | 1808 ft | 193 kts | 45° |
| 2026-05-09 01:02 | 39.81180 | -84.01317 | 1865 ft | 194 kts | 48° |
| 2026-05-09 01:02 | 39.82030 | -83.99981 | 2002 ft | 191 kts | 48° |
| 2026-05-09 01:03 | 39.82880 | -83.98652 | 2135 ft | 190 kts | 48° |
| 2026-05-09 01:03 | 39.83783 | -83.97526 | 2163 ft | 175 kts | 26° |
| 2026-05-09 01:03 | 39.84910 | -83.97401 | 1922 ft | 161 kts | 340° |
| 2026-05-09 01:03 | 39.85747 | -83.98283 | 1652 ft | 154 kts | 302° |
| 2026-05-09 01:04 | 39.85953 | -83.99562 | 1590 ft | 142 kts | 262° |
| 2026-05-09 01:04 | 39.85470 | -84.00569 | 1427 ft | 125 kts | 232° |
| 2026-05-09 01:04 | 39.84902 | -84.01418 | 1284 ft | 124 kts | 229° |
| 2026-05-09 01:04 | 39.84360 | -84.02229 | 1107 ft | 113 kts | 229° |
| 2026-05-09 01:05 | 39.83864 | -84.02988 | 905 ft | 111 kts | 230° |
| 2026-05-09 01:05 | 39.83326 | -84.03789 | 823 ft | 140 kts | 229° |
| 2026-05-09 01:05 | 39.81842 | -84.06036 | 1498 ft | 177 kts | 230° |
| 2026-05-09 01:06 | 39.80969 | -84.07190 | 1966 ft | 180 kts | 217° |
| 2026-05-09 01:06 | 39.79716 | -84.07701 | 2110 ft | 206 kts | 185° |
| 2026-05-09 01:06 | 39.78296 | -84.07153 | 2262 ft | 223 kts | 149° |
| 2026-05-09 01:06 | 39.77337 | -84.05543 | 2477 ft | 233 kts | 111° |
| 2026-05-09 01:07 | 39.77309 | -84.03393 | 2371 ft | 252 kts | 73° |
| 2026-05-09 01:07 | 39.78264 | -84.01511 | 2429 ft | 251 kts | 39° |
| 2026-05-09 01:07 | 39.79557 | -83.99995 | 2417 ft | 245 kts | 47° |
| 2026-05-09 01:07 | 39.80475 | -83.98394 | 2244 ft | 193 kts | 50° |
| 2026-05-09 01:08 | 39.81359 | -83.97380 | 2050 ft | 153 kts | 28° |
| 2026-05-09 01:08 | 39.82333 | -83.97194 | 1891 ft | 149 kts | 346° |
| 2026-05-09 01:08 | 39.83393 | -83.97565 | 1795 ft | 164 kts | 339° |
| 2026-05-09 01:08 | 39.84421 | -83.98186 | 1704 ft | 161 kts | 325° |
| 2026-05-09 01:09 | 39.85171 | -83.99238 | 1527 ft | 161 kts | 300° |
| 2026-05-09 01:09 | 39.85567 | -84.00630 | 1414 ft | 168 kts | 284° |
| 2026-05-09 01:09 | 39.85308 | -84.01941 | 1608 ft | 157 kts | 216° |
| 2026-05-09 01:09 | 39.84253 | -84.02459 | 1061 ft | 158 kts | 218° |
| 2026-05-09 01:10 | 39.83542 | -84.03505 | 884 ft | 160 kts | 225° |
| 2026-05-09 01:10 | 39.82633 | -84.04826 | 930 ft | 235 kts | 230° |
| 2026-05-09 01:10 | 39.81564 | -84.06411 | 1448 ft | 219 kts | 230° |
| 2026-05-09 01:10 | 39.80610 | -84.07695 | 1948 ft | 184 kts | 219° |
| 2026-05-09 01:11 | 39.79414 | -84.08088 | 2031 ft | 185 kts | 178° |
| 2026-05-09 01:11 | 39.78243 | -84.07351 | 2022 ft | 195 kts | 141° |
| 2026-05-09 01:11 | 39.77557 | -84.05794 | 1946 ft | 204 kts | 104° |
| 2026-05-09 01:11 | 39.77658 | -84.04011 | 2103 ft | 196 kts | 69° |
| 2026-05-09 01:12 | 39.78413 | -84.02620 | 2339 ft | 184 kts | 46° |
| 2026-05-09 01:12 | 39.79229 | -84.01405 | 2347 ft | 176 kts | 48° |
| 2026-05-09 01:12 | 39.79999 | -84.00204 | 2234 ft | 170 kts | 48° |
| 2026-05-09 01:12 | 39.80745 | -83.99040 | 2130 ft | 166 kts | 47° |
| 2026-05-09 01:13 | 39.81493 | -83.97919 | 2020 ft | 163 kts | 45° |
| 2026-05-09 01:13 | 39.82281 | -83.96881 | 1922 ft | 161 kts | 41° |
| 2026-05-09 01:13 | 39.83067 | -83.95877 | 1811 ft | 160 kts | 42° |
| 2026-05-09 01:13 | 39.84016 | -83.95223 | 1602 ft | 158 kts | 6° |
| 2026-05-09 01:14 | 39.85065 | -83.95521 | 1435 ft | 153 kts | 330° |
| 2026-05-09 01:14 | 39.85695 | -83.96543 | 1426 ft | 145 kts | 287° |
| 2026-05-09 01:14 | 39.85789 | -83.97844 | 1369 ft | 142 kts | 275° |
| 2026-05-09 01:14 | 39.85755 | -83.99109 | 1294 ft | 138 kts | 264° |
| 2026-05-09 01:15 | 39.85497 | -84.00302 | 1210 ft | 136 kts | 248° |
| 2026-05-09 01:15 | 39.84991 | -84.01316 | 1162 ft | 132 kts | 231° |
| 2026-05-09 01:15 | 39.84406 | -84.02138 | 1058 ft | 114 kts | 230° |
| 2026-05-09 01:15 | 39.83896 | -84.02929 | 910 ft | 124 kts | 233° |
| 2026-05-09 01:16 | 39.83310 | -84.03818 | 824 ft | 147 kts | 229° |
| 2026-05-09 01:16 | 39.82491 | -84.05028 | 1088 ft | 204 kts | 230° |
| 2026-05-09 01:16 | 39.81520 | -84.06490 | 1735 ft | 203 kts | 231° |
| 2026-05-09 01:17 | 39.79254 | -84.08432 | 2076 ft | 215 kts | 191° |
| 2026-05-09 01:17 | 39.77769 | -84.08066 | 2157 ft | 225 kts | 156° |
| 2026-05-09 01:17 | 39.76608 | -84.06671 | 2186 ft | 234 kts | 128° |
| 2026-05-09 01:17 | 39.76084 | -84.04675 | 2287 ft | 237 kts | 96° |
| 2026-05-09 01:18 | 39.76370 | -84.02572 | 2291 ft | 240 kts | 67° |
| 2026-05-09 01:18 | 39.77350 | -84.00806 | 2153 ft | 245 kts | 46° |
| 2026-05-09 01:18 | 39.78471 | -83.99156 | 2076 ft | 232 kts | 47° |
| 2026-05-09 01:18 | 39.79396 | -83.97717 | 2166 ft | 184 kts | 46° |
| 2026-05-09 01:19 | 39.80242 | -83.96651 | 2345 ft | 161 kts | 38° |
| 2026-05-09 01:19 | 39.81149 | -83.95884 | 2477 ft | 152 kts | 14° |
| 2026-05-09 01:19 | 39.82203 | -83.95731 | 2372 ft | 161 kts | 356° |
| 2026-05-09 01:19 | 39.83342 | -83.95818 | 2276 ft | 162 kts | 347° |
| 2026-05-09 01:20 | 39.84328 | -83.96314 | 2418 ft | 147 kts | 324° |
| 2026-05-09 01:20 | 39.85071 | -83.97144 | 2148 ft | 138 kts | 312° |
| 2026-05-09 01:20 | 39.85622 | -83.98122 | 1884 ft | 131 kts | 292° |
| 2026-05-09 01:20 | 39.85743 | -83.99285 | 1481 ft | 135 kts | 270° |
| 2026-05-09 01:21 | 39.85544 | -84.00457 | 1298 ft | 124 kts | 239° |
| 2026-05-09 01:21 | 39.85018 | -84.01260 | 1205 ft | 115 kts | 232° |
| 2026-05-09 01:21 | 39.84481 | -84.02031 | 1080 ft | 117 kts | 231° |
| 2026-05-09 01:21 | 39.83946 | -84.02858 | 951 ft | 120 kts | 232° |
| 2026-05-09 01:22 | 39.83381 | -84.03695 | 823 ft | 131 kts | 230° |
| 2026-05-09 01:22 | 39.82969 | -84.04320 | 812 ft | 70 kts | 229° |
| 2026-05-09 01:22 | 39.82739 | -84.04675 | 815 ft | 37 kts | 227° |
| 2026-05-09 01:22 | 39.82562 | -84.04934 | 813 ft | 37 kts | 228° |
| 2026-05-09 01:23 | 39.82401 | -84.05157 | 810 ft | 36 kts | 228° |
| 2026-05-09 01:23 | 39.82294 | -84.05406 | 811 ft | 23 kts | 284° |
| 2026-05-09 01:23 | 39.82363 | -84.05493 | 812 ft | 11 kts | 326° |
| 2026-05-09 01:23 | 39.82413 | -84.05542 | 812 ft | 8 kts | 321° |
| 2026-05-09 01:24 | 39.82456 | -84.05575 | 813 ft | 9 kts | 347° |
| 2026-05-09 01:24 | 39.82527 | -84.05535 | 812 ft | 15 kts | 47° |
| 2026-05-09 01:24 | 39.82609 | -84.05412 | 814 ft | 20 kts | 50° |
| 2026-05-09 01:24 | 39.82699 | -84.05274 | 812 ft | 18 kts | 49° |
| 2026-05-09 01:25 | 39.82771 | -84.05167 | 818 ft | 14 kts | 49° |
| 2026-05-09 01:25 | 39.82851 | -84.05052 | 820 ft | 23 kts | 48° |
| 2026-05-09 01:25 | 39.82955 | -84.04901 | 819 ft | 20 kts | 49° |
| 2026-05-09 01:25 | 39.83037 | -84.04777 | 817 ft | 17 kts | 49° |
| 2026-05-09 01:26 | 39.83109 | -84.04670 | 814 ft | 14 kts | 49° |
| 2026-05-09 01:26 | 39.83165 | -84.04586 | 815 ft | 10 kts | 49° |
| 2026-05-09 01:26 | 39.83203 | -84.04529 | 816 ft | 7 kts | 49° |
| 2026-05-09 01:26 | 39.83235 | -84.04481 | 817 ft | 8 kts | 49° |
| 2026-05-09 01:27 | 39.83276 | -84.04419 | 817 ft | 9 kts | 49° |
| 2026-05-09 01:27 | 39.83310 | -84.04369 | 819 ft | 5 kts | 45° |
| 2026-05-09 01:27 | 39.83343 | -84.04346 | 821 ft | 9 kts | 14° |
| 2026-05-09 01:27 | 39.83385 | -84.04365 | 822 ft | 5 kts | 325° |
| 2026-05-09 01:28 | 39.83433 | -84.04369 | 824 ft | 8 kts | 27° |
| 2026-05-09 01:28 | 39.83465 | -84.04329 | 823 ft | 5 kts | 47° |
| 2026-05-09 01:28 | 39.83497 | -84.04313 | 825 ft | 4 kts | 355° |
| 2026-05-09 01:28 | 39.83523 | -84.04329 | 823 ft | 7 kts | 323° |
| 2026-05-09 01:29 | 39.83549 | -84.04358 | 826 ft | 2 kts | 319° |
| 2026-05-09 01:29 | 39.83552 | -84.04362 | 826 ft | 0 kts | 319° |